sensor_id;sensor_type;location;lat;lon;timestamp;temperature;humidity
9383;DHT22;4731;49.708;10.816;2023-03-20T00:00:08;8.00;99.90
9383;DHT22;4731;49.708;10.816;2023-03-20T00:02:35;8.00;99.90
9383;DHT22;4731;49.708;10.816;2023-03-20T00:05:16;8.00;99.90
9383;DHT22;4731;49.708;10.816;2023-03-20T00:07:44;8.00;99.90
9383;DHT22;4731;49.708;10.816;2023-03-20T00:10:14;8.10;99.90
9383;DHT22;4731;49.708;10.816;2023-03-20T00:12:41;8.30;99.90
9383;DHT22;4731;49.708;10.816;2023-03-20T00:15:22;8.30;99.90
9383;DHT22;4731;49.708;10.816;2023-03-20T00:17:49;8.20;99.90
9383;DHT22;4731;49.708;10.816;2023-03-20T00:20:16;8.10;99.90
9383;DHT22;4731;49.708;10.816;2023-03-20T00:22:43;8.00;99.90
9383;DHT22;4731;49.708;10.816;2023-03-20T00:25:14;9.20;99.90
9383;DHT22;4731;49.708;10.816;2023-03-20T00:27:42;8.10;99.90
9383;DHT22;4731;49.708;10.816;2023-03-20T00:30:19;8.20;99.90
9383;DHT22;4731;49.708;10.816;2023-03-20T00:32:48;8.30;99.90
9383;DHT22;4731;49.708;10.816;2023-03-20T00:35:18;8.40;99.90
9383;DHT22;4731;49.708;10.816;2023-03-20T00:40:14;8.40;99.90
9383;DHT22;4731;49.708;10.816;2023-03-20T00:42:42;8.30;99.90
9383;DHT22;4731;49.708;10.816;2023-03-20T00:45:12;8.10;99.90
9383;DHT22;4731;49.708;10.816;2023-03-20T00:47:40;8.00;99.90
9383;DHT22;4731;49.708;10.816;2023-03-20T00:50:14;8.00;99.90
9383;DHT22;4731;49.708;10.816;2023-03-20T00:52:41;8.00;99.90
9383;DHT22;4731;49.708;10.816;2023-03-20T00:55:09;7.90;99.90
9383;DHT22;4731;49.708;10.816;2023-03-20T00:57:40;7.90;99.90
9383;DHT22;4731;49.708;10.816;2023-03-20T01:00:20;7.90;99.90
9383;DHT22;4731;49.708;10.816;2023-03-20T01:02:49;7.90;99.90
9383;DHT22;4731;49.708;10.816;2023-03-20T01:05:16;7.90;99.90
9383;DHT22;4731;49.708;10.816;2023-03-20T01:07:43;8.00;99.90
9383;DHT22;4731;49.708;10.816;2023-03-20T01:10:11;8.10;99.90
9383;DHT22;4731;49.708;10.816;2023-03-20T01:12:41;8.20;99.90
9383;DHT22;4731;49.708;10.816;2023-03-20T01:15:19;8.20;99.90
9383;DHT22;4731;49.708;10.816;2023-03-20T01:17:46;8.30;99.90
9383;DHT22;4731;49.708;10.816;2023-03-20T01:20:15;8.20;99.90
9383;DHT22;4731;49.708;10.816;2023-03-20T01:22:42;8.10;99.90
9383;DHT22;4731;49.708;10.816;2023-03-20T01:25:09;8.20;99.90
9383;DHT22;4731;49.708;10.816;2023-03-20T01:27:36;8.20;99.90
9383;DHT22;4731;49.708;10.816;2023-03-20T01:30:16;8.20;99.90
9383;DHT22;4731;49.708;10.816;2023-03-20T01:32:43;8.10;99.90
9383;DHT22;4731;49.708;10.816;2023-03-20T01:35:12;7.90;99.90
9383;DHT22;4731;49.708;10.816;2023-03-20T01:37:40;7.90;99.90
9383;DHT22;4731;49.708;10.816;2023-03-20T01:40:15;8.00;99.90
9383;DHT22;4731;49.708;10.816;2023-03-20T01:42:43;8.00;99.90
9383;DHT22;4731;49.708;10.816;2023-03-20T01:45:16;8.10;99.90
9383;DHT22;4731;49.708;10.816;2023-03-20T01:47:43;8.10;99.90
9383;DHT22;4731;49.708;10.816;2023-03-20T01:50:22;8.10;99.90
9383;DHT22;4731;49.708;10.816;2023-03-20T01:52:54;8.00;99.90
9383;DHT22;4731;49.708;10.816;2023-03-20T01:55:23;8.00;99.90
9383;DHT22;4731;49.708;10.816;2023-03-20T01:57:50;7.80;99.90
9383;DHT22;4731;49.708;10.816;2023-03-20T02:00:20;11.20;99.90
9383;DHT22;4731;49.708;10.816;2023-03-20T02:02:48;7.80;99.90
9383;DHT22;4731;49.708;10.816;2023-03-20T02:05:19;7.80;99.90
9383;DHT22;4731;49.708;10.816;2023-03-20T02:07:50;7.80;99.90
9383;DHT22;4731;49.708;10.816;2023-03-20T02:10:19;7.80;99.90
9383;DHT22;4731;49.708;10.816;2023-03-20T02:12:46;7.80;99.90
9383;DHT22;4731;49.708;10.816;2023-03-20T02:15:14;7.70;99.90
9383;DHT22;4731;49.708;10.816;2023-03-20T02:17:44;7.70;99.90
9383;DHT22;4731;49.708;10.816;2023-03-20T02:20:19;7.70;99.90
9383;DHT22;4731;49.708;10.816;2023-03-20T02:23:20;7.80;99.90
9383;DHT22;4731;49.708;10.816;2023-03-20T02:26:19;8.00;99.90
9383;DHT22;4731;49.708;10.816;2023-03-20T02:32:17;8.00;99.90
9383;DHT22;4731;49.708;10.816;2023-03-20T02:35:13;8.00;99.90
9383;DHT22;4731;49.708;10.816;2023-03-20T02:38:02;7.90;99.90
9383;DHT22;4731;49.708;10.816;2023-03-20T02:40:34;7.80;99.90
9383;DHT22;4731;49.708;10.816;2023-03-20T02:43:11;7.70;99.90
9383;DHT22;4731;49.708;10.816;2023-03-20T02:45:44;7.60;99.90
9383;DHT22;4731;49.708;10.816;2023-03-20T02:48:19;7.50;99.90
9383;DHT22;4731;49.708;10.816;2023-03-20T02:50:50;7.50;99.90
9383;DHT22;4731;49.708;10.816;2023-03-20T02:53:30;7.50;99.90
9383;DHT22;4731;49.708;10.816;2023-03-20T02:56:05;7.50;99.90
9383;DHT22;4731;49.708;10.816;2023-03-20T02:58:38;7.40;99.90
9383;DHT22;4731;49.708;10.816;2023-03-20T03:01:12;7.40;99.90
9383;DHT22;4731;49.708;10.816;2023-03-20T03:03:43;7.40;99.90
9383;DHT22;4731;49.708;10.816;2023-03-20T03:06:16;7.40;99.90
9383;DHT22;4731;49.708;10.816;2023-03-20T03:08:49;7.40;99.90
9383;DHT22;4731;49.708;10.816;2023-03-20T03:11:17;7.40;99.90
9383;DHT22;4731;49.708;10.816;2023-03-20T03:13:47;7.40;99.90
9383;DHT22;4731;49.708;10.816;2023-03-20T03:16:18;7.50;99.90
9383;DHT22;4731;49.708;10.816;2023-03-20T03:18:48;9.80;99.90
9383;DHT22;4731;49.708;10.816;2023-03-20T03:21:17;7.50;99.90
9383;DHT22;4731;49.708;10.816;2023-03-20T03:23:47;7.50;99.90
9383;DHT22;4731;49.708;10.816;2023-03-20T03:26:18;9.80;99.90
9383;DHT22;4731;49.708;10.816;2023-03-20T03:28:49;7.40;99.90
9383;DHT22;4731;49.708;10.816;2023-03-20T03:31:19;7.40;99.90
9383;DHT22;4731;49.708;10.816;2023-03-20T03:33:49;7.30;99.90
9383;DHT22;4731;49.708;10.816;2023-03-20T03:36:24;7.30;99.90
9383;DHT22;4731;49.708;10.816;2023-03-20T03:38:58;7.30;99.90
9383;DHT22;4731;49.708;10.816;2023-03-20T03:41:30;7.30;99.90
9383;DHT22;4731;49.708;10.816;2023-03-20T03:44:05;7.20;99.90
9383;DHT22;4731;49.708;10.816;2023-03-20T03:46:38;7.50;99.90
9383;DHT22;4731;49.708;10.816;2023-03-20T03:49:08;7.10;99.90
9383;DHT22;4731;49.708;10.816;2023-03-20T03:51:40;7.10;99.90
9383;DHT22;4731;49.708;10.816;2023-03-20T03:54:11;7.00;99.90
9383;DHT22;4731;49.708;10.816;2023-03-20T03:56:40;7.00;99.90
9383;DHT22;4731;49.708;10.816;2023-03-20T03:59:11;6.90;99.90
9383;DHT22;4731;49.708;10.816;2023-03-20T04:01:41;6.90;99.90
9383;DHT22;4731;49.708;10.816;2023-03-20T04:04:09;6.80;99.90
9383;DHT22;4731;49.708;10.816;2023-03-20T04:06:38;6.80;99.90
9383;DHT22;4731;49.708;10.816;2023-03-20T04:09:06;6.80;99.90
9383;DHT22;4731;49.708;10.816;2023-03-20T04:11:35;6.80;99.90
9383;DHT22;4731;49.708;10.816;2023-03-20T04:14:02;6.80;99.90
9383;DHT22;4731;49.708;10.816;2023-03-20T04:16:28;6.80;99.90
9383;DHT22;4731;49.708;10.816;2023-03-20T04:18:55;6.80;99.90
9383;DHT22;4731;49.708;10.816;2023-03-20T04:21:22;6.90;99.90
9383;DHT22;4731;49.708;10.816;2023-03-20T04:23:49;6.90;99.90
9383;DHT22;4731;49.708;10.816;2023-03-20T04:26:16;6.90;99.90
9383;DHT22;4731;49.708;10.816;2023-03-20T04:28:44;7.00;99.90
9383;DHT22;4731;49.708;10.816;2023-03-20T04:31:11;7.00;99.90
9383;DHT22;4731;49.708;10.816;2023-03-20T04:33:39;7.10;99.90
9383;DHT22;4731;49.708;10.816;2023-03-20T04:36:07;7.10;99.90
9383;DHT22;4731;49.708;10.816;2023-03-20T04:38:34;7.10;99.90
9383;DHT22;4731;49.708;10.816;2023-03-20T04:41:00;7.40;99.90
9383;DHT22;4731;49.708;10.816;2023-03-20T04:43:27;7.30;99.90
9383;DHT22;4731;49.708;10.816;2023-03-20T04:45:55;7.30;99.90
9383;DHT22;4731;49.708;10.816;2023-03-20T04:48:22;7.30;99.90
9383;DHT22;4731;49.708;10.816;2023-03-20T04:50:49;7.20;99.90
9383;DHT22;4731;49.708;10.816;2023-03-20T04:53:16;7.20;99.90
9383;DHT22;4731;49.708;10.816;2023-03-20T04:55:44;7.30;99.90
9383;DHT22;4731;49.708;10.816;2023-03-20T04:58:12;7.30;99.90
9383;DHT22;4731;49.708;10.816;2023-03-20T05:00:39;7.30;99.90
9383;DHT22;4731;49.708;10.816;2023-03-20T05:03:07;7.30;99.90
9383;DHT22;4731;49.708;10.816;2023-03-20T05:05:34;7.20;99.90
9383;DHT22;4731;49.708;10.816;2023-03-20T05:08:03;7.20;99.90
9383;DHT22;4731;49.708;10.816;2023-03-20T05:10:30;7.30;99.90
9383;DHT22;4731;49.708;10.816;2023-03-20T05:12:57;7.30;99.90
9383;DHT22;4731;49.708;10.816;2023-03-20T05:15:23;7.20;99.90
9383;DHT22;4731;49.708;10.816;2023-03-20T05:17:50;7.20;99.90
9383;DHT22;4731;49.708;10.816;2023-03-20T05:20:18;7.20;99.90
9383;DHT22;4731;49.708;10.816;2023-03-20T05:22:47;7.20;99.90
9383;DHT22;4731;49.708;10.816;2023-03-20T05:25:14;7.20;99.90
9383;DHT22;4731;49.708;10.816;2023-03-20T05:27:42;7.20;99.90
9383;DHT22;4731;49.708;10.816;2023-03-20T05:30:10;7.20;99.90
9383;DHT22;4731;49.708;10.816;2023-03-20T05:32:37;7.20;99.90
9383;DHT22;4731;49.708;10.816;2023-03-20T05:35:05;7.20;99.90
9383;DHT22;4731;49.708;10.816;2023-03-20T05:37:34;7.30;99.90
9383;DHT22;4731;49.708;10.816;2023-03-20T05:40:01;7.30;99.90
9383;DHT22;4731;49.708;10.816;2023-03-20T05:42:28;7.40;99.90
9383;DHT22;4731;49.708;10.816;2023-03-20T05:44:55;7.40;99.90
9383;DHT22;4731;49.708;10.816;2023-03-20T05:47:22;5.80;99.90
9383;DHT22;4731;49.708;10.816;2023-03-20T05:49:48;7.50;99.90
9383;DHT22;4731;49.708;10.816;2023-03-20T05:52:15;7.50;99.90
9383;DHT22;4731;49.708;10.816;2023-03-20T05:54:43;7.70;99.90
9383;DHT22;4731;49.708;10.816;2023-03-20T05:57:10;7.60;99.90
9383;DHT22;4731;49.708;10.816;2023-03-20T05:59:37;7.60;99.90
9383;DHT22;4731;49.708;10.816;2023-03-20T06:02:03;7.70;99.90
9383;DHT22;4731;49.708;10.816;2023-03-20T06:04:30;8.00;99.90
9383;DHT22;4731;49.708;10.816;2023-03-20T06:06:57;7.70;99.90
9383;DHT22;4731;49.708;10.816;2023-03-20T06:09:24;7.80;99.90
9383;DHT22;4731;49.708;10.816;2023-03-20T06:11:52;7.90;99.90
9383;DHT22;4731;49.708;10.816;2023-03-20T06:14:18;7.90;99.90
9383;DHT22;4731;49.708;10.816;2023-03-20T06:16:45;8.00;99.90
9383;DHT22;4731;49.708;10.816;2023-03-20T06:19:12;8.00;99.90
9383;DHT22;4731;49.708;10.816;2023-03-20T06:21:39;8.00;99.90
9383;DHT22;4731;49.708;10.816;2023-03-20T06:24:06;8.10;99.90
9383;DHT22;4731;49.708;10.816;2023-03-20T06:26:33;8.20;99.90
9383;DHT22;4731;49.708;10.816;2023-03-20T06:29:01;8.30;99.90
9383;DHT22;4731;49.708;10.816;2023-03-20T06:31:28;8.30;99.90
9383;DHT22;4731;49.708;10.816;2023-03-20T06:33:55;8.30;99.90
9383;DHT22;4731;49.708;10.816;2023-03-20T06:36:22;8.30;99.90
9383;DHT22;4731;49.708;10.816;2023-03-20T06:38:48;8.40;99.90
9383;DHT22;4731;49.708;10.816;2023-03-20T06:41:16;8.50;99.90
9383;DHT22;4731;49.708;10.816;2023-03-20T06:43:42;8.60;99.90
9383;DHT22;4731;49.708;10.816;2023-03-20T06:46:11;8.60;99.90
9383;DHT22;4731;49.708;10.816;2023-03-20T06:48:37;8.70;99.90
9383;DHT22;4731;49.708;10.816;2023-03-20T06:51:04;8.70;99.90
9383;DHT22;4731;49.708;10.816;2023-03-20T06:53:32;8.70;99.90
9383;DHT22;4731;49.708;10.816;2023-03-20T06:55:59;8.90;99.90
9383;DHT22;4731;49.708;10.816;2023-03-20T06:58:26;8.80;99.90
9383;DHT22;4731;49.708;10.816;2023-03-20T07:00:52;8.90;99.90
9383;DHT22;4731;49.708;10.816;2023-03-20T07:03:21;9.00;99.90
9383;DHT22;4731;49.708;10.816;2023-03-20T07:05:47;9.20;99.90
9383;DHT22;4731;49.708;10.816;2023-03-20T07:08:14;9.30;99.90
9383;DHT22;4731;49.708;10.816;2023-03-20T07:10:41;9.30;99.90
9383;DHT22;4731;49.708;10.816;2023-03-20T07:13:08;9.40;99.90
9383;DHT22;4731;49.708;10.816;2023-03-20T07:15:36;9.60;99.90
9383;DHT22;4731;49.708;10.816;2023-03-20T07:18:03;9.60;99.90
9383;DHT22;4731;49.708;10.816;2023-03-20T07:20:31;9.40;99.90
9383;DHT22;4731;49.708;10.816;2023-03-20T07:22:58;9.70;99.90
9383;DHT22;4731;49.708;10.816;2023-03-20T07:25:25;9.90;99.90
9383;DHT22;4731;49.708;10.816;2023-03-20T07:27:51;10.00;99.90
9383;DHT22;4731;49.708;10.816;2023-03-20T07:30:18;10.00;99.90
9383;DHT22;4731;49.708;10.816;2023-03-20T07:32:45;10.20;99.90
9383;DHT22;4731;49.708;10.816;2023-03-20T07:35:13;10.40;99.90
9383;DHT22;4731;49.708;10.816;2023-03-20T07:37:41;10.60;99.90
9383;DHT22;4731;49.708;10.816;2023-03-20T07:40:10;10.70;99.90
9383;DHT22;4731;49.708;10.816;2023-03-20T07:42:37;10.80;99.90
9383;DHT22;4731;49.708;10.816;2023-03-20T07:45:04;10.50;99.90
9383;DHT22;4731;49.708;10.816;2023-03-20T07:47:32;10.40;99.90
9383;DHT22;4731;49.708;10.816;2023-03-20T07:49:58;10.50;99.90
9383;DHT22;4731;49.708;10.816;2023-03-20T07:52:25;10.60;99.90
9383;DHT22;4731;49.708;10.816;2023-03-20T07:54:53;10.60;99.90
9383;DHT22;4731;49.708;10.816;2023-03-20T07:57:20;10.70;99.90
9383;DHT22;4731;49.708;10.816;2023-03-20T07:59:46;10.50;99.90
9383;DHT22;4731;49.708;10.816;2023-03-20T08:02:14;11.80;99.90
9383;DHT22;4731;49.708;10.816;2023-03-20T08:04:41;10.60;99.90
9383;DHT22;4731;49.708;10.816;2023-03-20T08:07:08;10.60;99.90
9383;DHT22;4731;49.708;10.816;2023-03-20T08:09:36;10.70;99.90
9383;DHT22;4731;49.708;10.816;2023-03-20T08:12:04;10.70;99.90
9383;DHT22;4731;49.708;10.816;2023-03-20T08:14:31;10.60;99.90
9383;DHT22;4731;49.708;10.816;2023-03-20T08:16:58;10.70;99.90
9383;DHT22;4731;49.708;10.816;2023-03-20T08:19:25;10.70;99.90
9383;DHT22;4731;49.708;10.816;2023-03-20T08:21:52;10.60;99.90
9383;DHT22;4731;49.708;10.816;2023-03-20T08:24:19;10.70;99.90
9383;DHT22;4731;49.708;10.816;2023-03-20T08:26:46;10.80;99.90
9383;DHT22;4731;49.708;10.816;2023-03-20T08:29:14;10.70;99.90
9383;DHT22;4731;49.708;10.816;2023-03-20T08:31:43;10.70;99.90
9383;DHT22;4731;49.708;10.816;2023-03-20T08:34:10;10.80;99.90
9383;DHT22;4731;49.708;10.816;2023-03-20T08:36:37;11.00;99.90
9383;DHT22;4731;49.708;10.816;2023-03-20T08:39:05;10.90;99.90
9383;DHT22;4731;49.708;10.816;2023-03-20T08:41:32;11.00;99.90
9383;DHT22;4731;49.708;10.816;2023-03-20T08:43:59;10.90;99.90
9383;DHT22;4731;49.708;10.816;2023-03-20T08:46:27;11.10;99.90
9383;DHT22;4731;49.708;10.816;2023-03-20T08:48:54;12.20;99.90
9383;DHT22;4731;49.708;10.816;2023-03-20T08:51:20;11.30;99.90
9383;DHT22;4731;49.708;10.816;2023-03-20T08:53:47;11.30;99.90
9383;DHT22;4731;49.708;10.816;2023-03-20T08:56:14;11.10;99.90
9383;DHT22;4731;49.708;10.816;2023-03-20T08:58:41;11.30;99.90
9383;DHT22;4731;49.708;10.816;2023-03-20T09:01:09;11.40;99.90
9383;DHT22;4731;49.708;10.816;2023-03-20T09:03:37;11.50;99.90
9383;DHT22;4731;49.708;10.816;2023-03-20T09:06:05;11.30;99.90
9383;DHT22;4731;49.708;10.816;2023-03-20T09:08:32;11.40;99.90
9383;DHT22;4731;49.708;10.816;2023-03-20T09:11:00;11.50;99.90
9383;DHT22;4731;49.708;10.816;2023-03-20T09:13:27;11.50;99.90
9383;DHT22;4731;49.708;10.816;2023-03-20T09:15:54;11.40;99.90
9383;DHT22;4731;49.708;10.816;2023-03-20T09:18:23;11.40;99.90
9383;DHT22;4731;49.708;10.816;2023-03-20T09:20:51;11.30;99.90
9383;DHT22;4731;49.708;10.816;2023-03-20T09:23:18;11.40;99.90
9383;DHT22;4731;49.708;10.816;2023-03-20T09:25:45;11.40;99.90
9383;DHT22;4731;49.708;10.816;2023-03-20T09:28:13;11.20;99.90
9383;DHT22;4731;49.708;10.816;2023-03-20T09:30:40;11.40;99.90
9383;DHT22;4731;49.708;10.816;2023-03-20T09:33:07;11.50;99.90
9383;DHT22;4731;49.708;10.816;2023-03-20T09:35:34;11.20;99.90
9383;DHT22;4731;49.708;10.816;2023-03-20T09:38:03;11.00;99.90
9383;DHT22;4731;49.708;10.816;2023-03-20T09:40:35;11.10;99.90
9383;DHT22;4731;49.708;10.816;2023-03-20T09:43:09;11.20;99.90
9383;DHT22;4731;49.708;10.816;2023-03-20T09:45:46;11.10;99.90
9383;DHT22;4731;49.708;10.816;2023-03-20T09:48:18;11.20;99.90
9383;DHT22;4731;49.708;10.816;2023-03-20T09:50:56;11.10;99.90
9383;DHT22;4731;49.708;10.816;2023-03-20T09:53:29;11.20;99.90
9383;DHT22;4731;49.708;10.816;2023-03-20T09:55:58;11.40;99.90
9383;DHT22;4731;49.708;10.816;2023-03-20T09:58:27;11.50;99.90
9383;DHT22;4731;49.708;10.816;2023-03-20T10:00:57;11.40;99.90
9383;DHT22;4731;49.708;10.816;2023-03-20T10:03:27;11.50;99.90
9383;DHT22;4731;49.708;10.816;2023-03-20T10:05:57;11.60;99.90
9383;DHT22;4731;49.708;10.816;2023-03-20T10:08:31;13.20;99.90
9383;DHT22;4731;49.708;10.816;2023-03-20T10:11:09;11.80;99.90
9383;DHT22;4731;49.708;10.816;2023-03-20T10:14:01;11.80;99.90
9383;DHT22;4731;49.708;10.816;2023-03-20T10:16:40;13.50;99.90
9383;DHT22;4731;49.708;10.816;2023-03-20T10:19:18;11.70;99.90
9383;DHT22;4731;49.708;10.816;2023-03-20T10:21:48;11.80;99.90
9383;DHT22;4731;49.708;10.816;2023-03-20T10:24:22;11.70;99.90
9383;DHT22;4731;49.708;10.816;2023-03-20T10:26:52;11.50;99.90
9383;DHT22;4731;49.708;10.816;2023-03-20T10:29:29;11.60;99.90
9383;DHT22;4731;49.708;10.816;2023-03-20T10:32:03;11.70;99.90
9383;DHT22;4731;49.708;10.816;2023-03-20T10:34:44;11.90;99.90
9383;DHT22;4731;49.708;10.816;2023-03-20T10:37:27;12.10;99.90
9383;DHT22;4731;49.708;10.816;2023-03-20T10:40:03;12.30;99.90
9383;DHT22;4731;49.708;10.816;2023-03-20T10:42:39;12.30;99.90
9383;DHT22;4731;49.708;10.816;2023-03-20T10:45:13;12.30;99.90
9383;DHT22;4731;49.708;10.816;2023-03-20T10:47:46;12.10;99.90
9383;DHT22;4731;49.708;10.816;2023-03-20T10:52:44;11.80;99.90
9383;DHT22;4731;49.708;10.816;2023-03-20T10:55:17;12.10;99.90
9383;DHT22;4731;49.708;10.816;2023-03-20T10:57:48;12.10;99.90
9383;DHT22;4731;49.708;10.816;2023-03-20T11:00:20;12.20;99.90
9383;DHT22;4731;49.708;10.816;2023-03-20T11:02:47;12.40;99.90
9383;DHT22;4731;49.708;10.816;2023-03-20T11:05:21;12.50;99.90
9383;DHT22;4731;49.708;10.816;2023-03-20T11:07:51;12.20;99.90
9383;DHT22;4731;49.708;10.816;2023-03-20T11:10:27;12.20;99.90
9383;DHT22;4731;49.708;10.816;2023-03-20T11:12:54;12.20;99.90
9383;DHT22;4731;49.708;10.816;2023-03-20T11:15:22;14.30;99.90
9383;DHT22;4731;49.708;10.816;2023-03-20T11:17:54;12.60;99.90
9383;DHT22;4731;49.708;10.816;2023-03-20T11:20:22;12.50;99.90
9383;DHT22;4731;49.708;10.816;2023-03-20T11:22:49;12.60;99.90
9383;DHT22;4731;49.708;10.816;2023-03-20T11:25:25;12.30;99.90
9383;DHT22;4731;49.708;10.816;2023-03-20T11:27:55;12.50;99.90
9383;DHT22;4731;49.708;10.816;2023-03-20T11:30:23;12.60;99.90
9383;DHT22;4731;49.708;10.816;2023-03-20T11:32:53;12.50;99.90
9383;DHT22;4731;49.708;10.816;2023-03-20T11:35:27;12.60;99.90
9383;DHT22;4731;49.708;10.816;2023-03-20T11:38:08;12.30;99.90
9383;DHT22;4731;49.708;10.816;2023-03-20T11:40:36;12.20;99.90
9383;DHT22;4731;49.708;10.816;2023-03-20T11:43:09;12.20;99.90
9383;DHT22;4731;49.708;10.816;2023-03-20T11:45:38;12.20;99.90
9383;DHT22;4731;49.708;10.816;2023-03-20T11:48:06;12.10;99.90
9383;DHT22;4731;49.708;10.816;2023-03-20T11:50:43;12.20;99.90
9383;DHT22;4731;49.708;10.816;2023-03-20T11:53:21;12.10;99.90
9383;DHT22;4731;49.708;10.816;2023-03-20T11:56:00;12.10;99.90
9383;DHT22;4731;49.708;10.816;2023-03-20T11:58:29;12.00;99.90
9383;DHT22;4731;49.708;10.816;2023-03-20T12:00:56;12.10;99.90
9383;DHT22;4731;49.708;10.816;2023-03-20T12:03:40;11.90;99.90
9383;DHT22;4731;49.708;10.816;2023-03-20T12:06:12;11.90;99.90
9383;DHT22;4731;49.708;10.816;2023-03-20T12:08:40;11.90;99.90
9383;DHT22;4731;49.708;10.816;2023-03-20T12:11:20;11.80;99.90
9383;DHT22;4731;49.708;10.816;2023-03-20T12:13:53;12.00;99.90
9383;DHT22;4731;49.708;10.816;2023-03-20T12:16:24;11.90;99.90
9383;DHT22;4731;49.708;10.816;2023-03-20T12:18:57;12.00;99.90
9383;DHT22;4731;49.708;10.816;2023-03-20T12:21:29;12.00;99.90
9383;DHT22;4731;49.708;10.816;2023-03-20T12:24:01;11.90;99.90
9383;DHT22;4731;49.708;10.816;2023-03-20T12:26:32;11.80;99.90
9383;DHT22;4731;49.708;10.816;2023-03-20T12:29:06;11.80;99.90
9383;DHT22;4731;49.708;10.816;2023-03-20T12:31:38;11.70;99.90
9383;DHT22;4731;49.708;10.816;2023-03-20T12:34:09;11.70;99.90
9383;DHT22;4731;49.708;10.816;2023-03-20T12:36:41;11.80;99.90
9383;DHT22;4731;49.708;10.816;2023-03-20T12:39:11;12.00;99.90
9383;DHT22;4731;49.708;10.816;2023-03-20T12:41:48;12.20;99.90
9383;DHT22;4731;49.708;10.816;2023-03-20T12:44:28;12.30;99.90
9383;DHT22;4731;49.708;10.816;2023-03-20T12:47:13;12.30;99.90
9383;DHT22;4731;49.708;10.816;2023-03-20T12:49:49;12.10;99.90
9383;DHT22;4731;49.708;10.816;2023-03-20T12:52:27;12.10;99.90
9383;DHT22;4731;49.708;10.816;2023-03-20T12:55:09;12.20;99.90
9383;DHT22;4731;49.708;10.816;2023-03-20T12:57:45;12.20;99.90
9383;DHT22;4731;49.708;10.816;2023-03-20T13:00:39;12.30;99.90
9383;DHT22;4731;49.708;10.816;2023-03-20T13:06:05;14.30;99.90
9383;DHT22;4731;49.708;10.816;2023-03-20T13:08:52;12.30;99.90
9383;DHT22;4731;49.708;10.816;2023-03-20T13:11:27;12.30;99.90
9383;DHT22;4731;49.708;10.816;2023-03-20T13:13:57;12.10;99.90
9383;DHT22;4731;49.708;10.816;2023-03-20T13:16:35;12.00;99.90
9383;DHT22;4731;49.708;10.816;2023-03-20T13:19:08;11.90;99.90
9383;DHT22;4731;49.708;10.816;2023-03-20T13:21:42;11.90;99.90
9383;DHT22;4731;49.708;10.816;2023-03-20T13:24:21;12.00;99.90
9383;DHT22;4731;49.708;10.816;2023-03-20T13:26:59;11.90;99.90
9383;DHT22;4731;49.708;10.816;2023-03-20T13:29:31;11.90;99.90
9383;DHT22;4731;49.708;10.816;2023-03-20T13:32:10;11.90;99.90
9383;DHT22;4731;49.708;10.816;2023-03-20T13:34:55;12.00;99.90
9383;DHT22;4731;49.708;10.816;2023-03-20T13:37:29;12.00;99.90
9383;DHT22;4731;49.708;10.816;2023-03-20T13:40:04;12.10;99.90
9383;DHT22;4731;49.708;10.816;2023-03-20T13:42:36;12.20;99.90
9383;DHT22;4731;49.708;10.816;2023-03-20T13:45:06;12.40;99.90
9383;DHT22;4731;49.708;10.816;2023-03-20T13:47:39;12.30;99.90
9383;DHT22;4731;49.708;10.816;2023-03-20T13:50:22;12.20;99.90
9383;DHT22;4731;49.708;10.816;2023-03-20T13:52:55;12.20;99.90
9383;DHT22;4731;49.708;10.816;2023-03-20T13:55:30;12.20;99.90
9383;DHT22;4731;49.708;10.816;2023-03-20T13:58:06;12.30;99.90
9383;DHT22;4731;49.708;10.816;2023-03-20T14:00:41;10.00;99.90
9383;DHT22;4731;49.708;10.816;2023-03-20T14:03:17;12.20;99.90
9383;DHT22;4731;49.708;10.816;2023-03-20T14:05:46;12.20;99.90
9383;DHT22;4731;49.708;10.816;2023-03-20T14:08:30;12.20;99.90
9383;DHT22;4731;49.708;10.816;2023-03-20T14:11:12;12.10;99.90
9383;DHT22;4731;49.708;10.816;2023-03-20T14:13:44;12.10;99.90
9383;DHT22;4731;49.708;10.816;2023-03-20T14:16:14;12.20;99.90
9383;DHT22;4731;49.708;10.816;2023-03-20T14:18:46;12.30;99.90
9383;DHT22;4731;49.708;10.816;2023-03-20T14:21:22;12.50;99.90
9383;DHT22;4731;49.708;10.816;2023-03-20T14:23:56;12.60;99.90
9383;DHT22;4731;49.708;10.816;2023-03-20T14:26:27;12.50;99.90
9383;DHT22;4731;49.708;10.816;2023-03-20T14:28:58;12.50;99.90
9383;DHT22;4731;49.708;10.816;2023-03-20T14:31:28;14.60;99.90
9383;DHT22;4731;49.708;10.816;2023-03-20T14:34:06;12.40;99.90
9383;DHT22;4731;49.708;10.816;2023-03-20T14:36:49;12.50;99.90
9383;DHT22;4731;49.708;10.816;2023-03-20T14:39:29;12.60;99.90
9383;DHT22;4731;49.708;10.816;2023-03-20T14:42:11;12.50;99.90
9383;DHT22;4731;49.708;10.816;2023-03-20T14:44:50;12.50;99.90
9383;DHT22;4731;49.708;10.816;2023-03-20T14:47:27;12.60;99.90
9383;DHT22;4731;49.708;10.816;2023-03-20T14:50:04;12.70;99.90
9383;DHT22;4731;49.708;10.816;2023-03-20T14:52:44;12.60;99.90
9383;DHT22;4731;49.708;10.816;2023-03-20T14:55:47;13.40;99.90
9383;DHT22;4731;49.708;10.816;2023-03-20T14:58:47;12.30;99.90
9383;DHT22;4731;49.708;10.816;2023-03-20T15:01:17;12.30;99.90
9383;DHT22;4731;49.708;10.816;2023-03-20T15:03:50;13.40;99.90
9383;DHT22;4731;49.708;10.816;2023-03-20T15:06:21;12.60;99.90
9383;DHT22;4731;49.708;10.816;2023-03-20T15:08:53;12.40;99.90
9383;DHT22;4731;49.708;10.816;2023-03-20T15:11:22;12.40;99.90
9383;DHT22;4731;49.708;10.816;2023-03-20T15:13:50;12.30;99.90
9383;DHT22;4731;49.708;10.816;2023-03-20T15:16:25;12.40;99.90
9383;DHT22;4731;49.708;10.816;2023-03-20T15:18:52;12.20;99.90
9383;DHT22;4731;49.708;10.816;2023-03-20T15:21:27;12.40;99.90
9383;DHT22;4731;49.708;10.816;2023-03-20T15:23:56;12.30;99.90
9383;DHT22;4731;49.708;10.816;2023-03-20T15:26:23;12.20;99.90
9383;DHT22;4731;49.708;10.816;2023-03-20T15:28:57;12.20;99.90
9383;DHT22;4731;49.708;10.816;2023-03-20T15:31:26;12.10;99.90
9383;DHT22;4731;49.708;10.816;2023-03-20T15:33:56;12.10;99.90
9383;DHT22;4731;49.708;10.816;2023-03-20T15:36:26;12.00;99.90
9383;DHT22;4731;49.708;10.816;2023-03-20T15:39:11;11.90;99.90
9383;DHT22;4731;49.708;10.816;2023-03-20T15:41:39;11.80;99.90
9383;DHT22;4731;49.708;10.816;2023-03-20T15:44:17;11.80;99.90
9383;DHT22;4731;49.708;10.816;2023-03-20T15:46:57;12.00;99.90
9383;DHT22;4731;49.708;10.816;2023-03-20T15:49:25;12.00;99.90
9383;DHT22;4731;49.708;10.816;2023-03-20T15:51:57;12.10;99.90
9383;DHT22;4731;49.708;10.816;2023-03-20T15:54:34;11.90;99.90
9383;DHT22;4731;49.708;10.816;2023-03-20T15:57:02;13.40;99.90
9383;DHT22;4731;49.708;10.816;2023-03-20T15:59:31;11.70;99.90
9383;DHT22;4731;49.708;10.816;2023-03-20T16:02:00;11.80;99.90
9383;DHT22;4731;49.708;10.816;2023-03-20T16:04:27;11.70;99.90
9383;DHT22;4731;49.708;10.816;2023-03-20T16:06:57;11.60;99.90
9383;DHT22;4731;49.708;10.816;2023-03-20T16:09:25;11.60;99.90
9383;DHT22;4731;49.708;10.816;2023-03-20T16:11:57;11.70;99.90
9383;DHT22;4731;49.708;10.816;2023-03-20T16:14:25;11.70;99.90
9383;DHT22;4731;49.708;10.816;2023-03-20T16:16:54;11.60;99.90
9383;DHT22;4731;49.708;10.816;2023-03-20T16:19:23;11.70;99.90
9383;DHT22;4731;49.708;10.816;2023-03-20T16:21:52;11.70;99.90
9383;DHT22;4731;49.708;10.816;2023-03-20T16:24:26;11.80;99.90
9383;DHT22;4731;49.708;10.816;2023-03-20T16:26:54;11.80;99.90